EDDLEBFS

Guest
Details From EDDL - Duesseldorf
To EBFS - Florennes
Flight Number -
Tags generated
Created
Modified
Stats Distance 102 nm / 189 km
Max Altitude 10,800 ft / 3,292 m
Waypoints 3
Social Downloads 0
Likes 0
Share VATSIM

Download

Looking for another format? Having issues loading an existing format? Contact us
Advertisement - Login to hide

Notes

Basic altitude profile: - Ascent Rate: 2500ft/min - Ascent Speed: 250kts - Cruise Altitude: 35000ft - Cruise Speed: 420kts - Descent Rate: 1500ft/min - Descent Speed: 250kts Options: - Use NATs: yes - Use PACOTS: yes - Use low airways: yes - Use high airways: yes

Route

EDDL GIX EBFS

ID Type Via Altitude Latitude Longitude Leg Dist Tot Dist Heading (true) Name
O EDDL APT - 0 ft / 0 m 51.28942˚ 6.76664˚ - 0 nm - Duesseldorf
GIX GS - 10,800 ft / 3,292 m 50.96229˚ 6.05642˚ 33 nm 33 nm 234° / 233° GS
O EBFS APT - 0 ft / 0 m 50.24086˚ 4.64829˚ 68 nm 102 nm 232° / 231° Florennes

Altitude Profile

Advertisement - Login to hide

EDDL

Details ICAO EDDL (DUS)
Name Duesseldorf
Region Germany - Civil
Timezone Europe/Berlin (UTC+2.0)
Stats Elevation 146 ft / 45 m (AMSL)
Location 51.289419° 6.766637°
Runways 2
Magnetic Variation 1.866° E

METAR

EDDL 220250Z 06004KT CAVOK 14/12 Q1011 NOSIG

Decode

TAF

TAF EDDL 212300Z 2200/2306 VRB03KT CAVOK BECMG 2208/2211 04006KT TEMPO 2214/2220 05015G25KT 4000 TSRA BKN040CB BECMG 2218/2221 VRB03KT

Decode

Departure Runways

ID Width Length Bearing (true) Bearing (mag) Surface Threshold Offset Overrun Length
05L 148 ft / 45 m 8,895 ft / 2,711 m 52.72° 50.85° Concrete 994 ft / 303 m 906 ft / 276 m
05R 148 ft / 45 m 9,858 ft / 3,005 m 52.68° 50.81° Concrete 984 ft / 300 m 659 ft / 201 m
23L 148 ft / 45 m 9,858 ft / 3,005 m 232.71° 230.84° Concrete 984 ft / 300 m 702 ft / 214 m
23R 148 ft / 45 m 8,895 ft / 2,711 m 232.75° 230.88° Concrete 971 ft / 296 m 928 ft / 283 m

EBFS

Details ICAO EBFS
Name Florennes
Region Belgium
Timezone Europe/Brussels (UTC+2.0)
Stats Elevation 900 ft / 274 m (AMSL)
Location 50.240864° 4.648295°
Runways 2
Magnetic Variation 1.263° E

METAR

EBFS 220255Z AUTO 08004KT 9999 SCT110/// BKN190/// 11/09 Q1012 BLU

Decode

TAF

Not found

Destination Runways

ID Width Length Bearing (true) Bearing (mag) Surface Threshold Offset Overrun Length
08L 148 ft / 45 m 11,215 ft / 3,418 m 79.47° 78.21° Asphalt 889 ft / 271 m 161 ft / 49 m
08R 75 ft / 23 m 7,337 ft / 2,236 m 79.44° 78.18° Asphalt 453 ft / 138 m 0 ft / 0 m
26L 75 ft / 23 m 7,337 ft / 2,236 m 259.46° 258.20° Asphalt 502 ft / 153 m 0 ft / 0 m
26R 148 ft / 45 m 11,215 ft / 3,418 m 259.51° 258.25° Asphalt 1,345 ft / 410 m 13 ft / 4 m

Approach Navaids

Runway Type Ident Frequency Range Bearing (true) Bearing (mag) Slope Elevation
26R Localiser BFS 108.35 MHz 18 nm / 33 km 259.49° 258.23° - 919 ft / 280 m (AMSL)
26R Glidescope BFS 108.35 MHz 10 nm / 19 km 259.49° 258.23° 2.75° 994 ft / 303 m (AMSL)